Time;durP1;ratioP1;P1;durP2;ratioP2;P2;SDS_P1;SDS_P2;PMS_P1;PMS_P2;Temp;Humidity;BMP_temperature;BMP_pressure;BME280_temperature;BME280_humidity;BME280_pressure;Samples;Min_cycle;Max_cycle;Signal;HPM_P1;HPM_P2
2023/05/26 00:01:57;;;;;;;22.83;3.70;;;;;;;;;;6282343;22;20015;-84
2023/05/26 00:04:25;;;;;;;19.95;3.83;;;;;;;;;;6282264;22;20019;-83
2023/05/26 00:06:52;;;;;;;23.83;3.88;;;;;;;;;;6307017;22;20019;-83
2023/05/26 00:09:20;;;;;;;15.55;3.10;;;;;;;;;;6282406;22;20038;-83
2023/05/26 00:11:46;;;;;;;21.52;4.05;;;;;;;;;;6307679;22;20023;-83
2023/05/26 00:14:14;;;;;;;21.58;3.75;;;;;;;;;;6281964;22;20048;-83
2023/05/26 00:16:40;;;;;;;21.42;3.50;;;;;;;;;;6283145;22;20022;-83
2023/05/26 00:19:07;;;;;;;22.75;3.88;;;;;;;;;;6282124;22;20015;-83
2023/05/26 00:21:35;;;;;;;19.15;3.70;;;;;;;;;;6281833;22;20021;-83
2023/05/26 00:24:01;;;;;;;19.10;3.90;;;;;;;;;;6307488;22;20068;-83
2023/05/26 00:26:27;;;;;;;19.60;4.35;;;;;;;;;;6281841;22;20094;-84
2023/05/26 00:28:53;;;;;;;20.63;4.30;;;;;;;;;;6282129;22;20019;-83
2023/05/26 00:31:19;;;;;;;19.73;3.75;;;;;;;;;;6281785;22;20102;-83
2023/05/26 00:33:45;;;;;;;22.75;4.35;;;;;;;;;;6281649;22;20073;-84
2023/05/26 00:36:12;;;;;;;29.48;3.92;;;;;;;;;;6306917;22;20022;-83
2023/05/26 00:38:38;;;;;;;21.58;3.90;;;;;;;;;;6307673;22;20050;-83
2023/05/26 00:41:04;;;;;;;14.52;3.60;;;;;;;;;;6282072;22;20015;-83
2023/05/26 00:43:30;;;;;;;21.02;3.85;;;;;;;;;;6308276;22;20425;-83
2023/05/26 00:45:56;;;;;;;18.52;3.95;;;;;;;;;;6282572;22;20019;-83
2023/05/26 00:48:22;;;;;;;17.30;3.60;;;;;;;;;;6307267;22;20122;-84
2023/05/26 00:50:48;;;;;;;19.30;4.05;;;;;;;;;;6281589;22;20338;-83
2023/05/26 00:53:15;;;;;;;20.45;3.28;;;;;;;;;;6281529;22;20015;-83
2023/05/26 00:55:42;;;;;;;17.27;3.38;;;;;;;;;;6281378;22;20026;-83
2023/05/26 00:58:09;;;;;;;21.73;4.35;;;;;;;;;;6282422;22;20016;-83
2023/05/26 01:00:36;;;;;;;14.30;3.33;;;;;;;;;;6282338;22;20019;-83
2023/05/26 01:03:05;;;;;;;22.55;3.63;;;;;;;;;;6281587;22;20022;-83
2023/05/26 01:05:31;;;;;;;19.23;3.58;;;;;;;;;;6307013;22;20051;-83
2023/05/26 01:07:57;;;;;;;17.27;3.42;;;;;;;;;;6281397;22;20054;-83
2023/05/26 01:10:23;;;;;;;20.15;4.72;;;;;;;;;;6281340;22;20391;-83
2023/05/26 01:12:52;;;;;;;23.88;3.95;;;;;;;;;;6281253;22;20438;-83
2023/05/26 01:15:22;;;;;;;18.27;3.72;;;;;;;;;;6307418;22;20015;-83
2023/05/26 01:18:00;;;;;;;15.63;3.35;;;;;;;;;;6307067;22;20015;-83
2023/05/26 01:20:48;;;;;;;15.57;3.80;;;;;;;;;;6307223;22;20011;-83
2023/05/26 01:23:18;;;;;;;15.63;2.92;;;;;;;;;;6306960;22;20023;-83
2023/05/26 01:25:44;;;;;;;21.67;4.47;;;;;;;;;;6306949;22;20019;-83
2023/05/26 01:28:21;;;;;;;18.67;3.35;;;;;;;;;;6307279;22;20022;-83
2023/05/26 01:30:48;;;;;;;18.70;3.63;;;;;;;;;;6306899;22;20019;-83
2023/05/26 01:33:14;;;;;;;21.38;4.20;;;;;;;;;;6306966;22;20011;-83
2023/05/26 01:35:41;;;;;;;16.70;3.38;;;;;;;;;;6282089;22;20062;-83
2023/05/26 01:38:08;;;;;;;17.75;3.35;;;;;;;;;;6307177;22;20054;-83
2023/05/26 01:40:34;;;;;;;16.67;4.20;;;;;;;;;;6281340;22;20103;-83
2023/05/26 01:43:05;;;;;;;17.70;3.65;;;;;;;;;;6281015;22;20019;-83
2023/05/26 01:45:41;;;;;;;13.30;3.17;;;;;;;;;;6280888;22;20441;-83
2023/05/26 01:48:08;;;;;;;18.10;3.08;;;;;;;;;;6307163;22;20011;-83
2023/05/26 01:50:36;;;;;;;17.48;3.42;;;;;;;;;;6281877;22;20020;-84
2023/05/26 01:53:08;;;;;;;21.02;3.83;;;;;;;;;;6280829;22;20045;-83
2023/05/26 01:55:36;;;;;;;15.60;2.65;;;;;;;;;;6281135;22;20084;-83
2023/05/26 01:58:03;;;;;;;12.07;3.00;;;;;;;;;;6281822;22;20317;-83
2023/05/26 02:00:29;;;;;;;16.38;3.50;;;;;;;;;;6281947;22;20058;-83
2023/05/26 02:02:55;;;;;;;19.05;4.47;;;;;;;;;;6280860;22;20025;-83
2023/05/26 02:05:21;;;;;;;17.10;3.22;;;;;;;;;;6281039;22;20087;-83
2023/05/26 02:07:47;;;;;;;16.15;3.28;;;;;;;;;;6307508;22;20019;-83
2023/05/26 02:10:13;;;;;;;17.60;3.33;;;;;;;;;;6281782;22;20015;-83
2023/05/26 02:12:39;;;;;;;16.25;3.13;;;;;;;;;;6281335;22;20426;-84
2023/05/26 02:15:06;;;;;;;19.77;3.45;;;;;;;;;;6280966;22;20027;-83
2023/05/26 02:17:32;;;;;;;18.70;4.05;;;;;;;;;;6306439;22;20011;-83
2023/05/26 02:19:59;;;;;;;21.08;4.18;;;;;;;;;;6306529;22;20090;-84
2023/05/26 02:22:25;;;;;;;17.98;3.33;;;;;;;;;;6280719;22;20100;-83
2023/05/26 02:24:51;;;;;;;15.00;3.38;;;;;;;;;;6307515;22;20500;-84
2023/05/26 02:27:17;;;;;;;17.75;3.33;;;;;;;;;;6281057;22;20019;-83
2023/05/26 02:29:43;;;;;;;15.63;2.83;;;;;;;;;;6280426;22;20051;-84
2023/05/26 02:32:09;;;;;;;16.50;3.42;;;;;;;;;;6281112;22;20019;-83
2023/05/26 02:34:35;;;;;;;16.67;3.33;;;;;;;;;;6281627;22;20019;-84
2023/05/26 02:37:01;;;;;;;15.77;3.30;;;;;;;;;;6280698;22;20021;-83
2023/05/26 02:39:27;;;;;;;17.77;3.58;;;;;;;;;;6281426;22;20015;-83
2023/05/26 02:41:53;;;;;;;20.08;3.95;;;;;;;;;;6280814;22;20073;-84
2023/05/26 02:44:20;;;;;;;15.65;3.53;;;;;;;;;;6280679;22;20026;-84
2023/05/26 02:46:46;;;;;;;14.52;3.65;;;;;;;;;;6280618;22;20499;-84
2023/05/26 02:49:12;;;;;;;22.48;4.32;;;;;;;;;;6280635;22;20445;-83
2023/05/26 02:51:38;;;;;;;17.85;3.13;;;;;;;;;;6281637;22;20084;-84
2023/05/26 02:54:04;;;;;;;16.27;3.67;;;;;;;;;;6281083;22;20019;-83
2023/05/26 02:56:30;;;;;;;12.95;2.95;;;;;;;;;;6306318;22;20015;-83
2023/05/26 02:58:56;;;;;;;14.35;2.90;;;;;;;;;;6280660;22;20023;-84
2023/05/26 03:01:24;;;;;;;16.63;3.17;;;;;;;;;;6280824;22;20011;-84
2023/05/26 03:03:50;;;;;;;17.95;3.28;;;;;;;;;;6281134;22;20016;-84
2023/05/26 03:06:16;;;;;;;22.33;4.03;;;;;;;;;;6280643;22;20097;-84
2023/05/26 03:08:42;;;;;;;14.30;3.58;;;;;;;;;;6306436;22;20011;-84
2023/05/26 03:11:08;;;;;;;18.88;3.70;;;;;;;;;;6280793;22;20015;-83
2023/05/26 03:13:34;;;;;;;13.98;3.20;;;;;;;;;;6280492;22;20015;-84
2023/05/26 03:16:00;;;;;;;15.18;2.97;;;;;;;;;;6280590;22;20051;-84
2023/05/26 03:18:26;;;;;;;12.85;3.63;;;;;;;;;;6280541;22;20437;-84
2023/05/26 03:20:52;;;;;;;20.77;3.72;;;;;;;;;;6306316;22;20023;-83
2023/05/26 03:23:18;;;;;;;17.95;3.92;;;;;;;;;;6306241;22;20015;-84
2023/05/26 03:25:45;;;;;;;14.95;2.78;;;;;;;;;;6306631;22;20377;-84
2023/05/26 03:28:11;;;;;;;23.17;4.47;;;;;;;;;;6306601;22;20011;-84
2023/05/26 03:30:37;;;;;;;13.98;3.72;;;;;;;;;;6306280;22;20016;-83
2023/05/26 03:33:03;;;;;;;17.27;3.90;;;;;;;;;;6280438;22;20015;-84
2023/05/26 03:35:29;;;;;;;18.35;3.67;;;;;;;;;;6280376;22;20019;-84
2023/05/26 03:37:55;;;;;;;17.10;3.50;;;;;;;;;;6280731;22;20034;-84
2023/05/26 03:40:21;;;;;;;13.30;3.90;;;;;;;;;;6281492;22;20302;-84
2023/05/26 03:42:47;;;;;;;22.80;3.95;;;;;;;;;;6308094;22;20022;-83
2023/05/26 03:45:13;;;;;;;16.35;4.00;;;;;;;;;;6308004;22;20016;-83
2023/05/26 03:47:39;;;;;;;14.18;3.65;;;;;;;;;;6308145;22;20084;-83
2023/05/26 03:50:06;;;;;;;12.82;3.35;;;;;;;;;;6282496;22;20019;-84
2023/05/26 03:52:32;;;;;;;18.23;3.92;;;;;;;;;;6283221;22;20107;-84
2023/05/26 03:54:58;;;;;;;18.83;3.70;;;;;;;;;;6282198;22;20483;-84
2023/05/26 03:57:24;;;;;;;14.32;3.50;;;;;;;;;;6307917;22;20019;-84
2023/05/26 03:59:50;;;;;;;12.98;2.97;;;;;;;;;;6283212;22;20049;-84
2023/05/26 04:02:16;;;;;;;15.25;4.15;;;;;;;;;;6282176;22;20090;-84
2023/05/26 04:04:42;;;;;;;16.48;3.28;;;;;;;;;;6282039;22;20028;-83
2023/05/26 04:07:08;;;;;;;21.77;4.32;;;;;;;;;;6283220;22;20310;-83
2023/05/26 04:09:34;;;;;;;18.33;3.30;;;;;;;;;;6283117;22;20015;-83
2023/05/26 04:12:01;;;;;;;13.10;3.33;;;;;;;;;;6308873;22;20019;-83
2023/05/26 04:14:27;;;;;;;14.95;3.78;;;;;;;;;;6282162;22;20015;-83
2023/05/26 04:16:53;;;;;;;16.05;3.67;;;;;;;;;;6281871;22;20012;-83
2023/05/26 04:19:19;;;;;;;12.55;3.05;;;;;;;;;;6282379;22;20015;-83
2023/05/26 04:21:45;;;;;;;25.73;5.68;;;;;;;;;;6282088;22;20027;-83
2023/05/26 04:24:11;;;;;;;19.20;4.65;;;;;;;;;;6307371;22;20018;-83
2023/05/26 04:26:38;;;;;;;18.48;3.88;;;;;;;;;;6281888;22;20069;-83
2023/05/26 04:29:04;;;;;;;18.10;3.65;;;;;;;;;;6281911;22;20034;-83
2023/05/26 04:31:30;;;;;;;17.17;3.65;;;;;;;;;;6283010;22;20364;-84
2023/05/26 04:33:59;;;;;;;15.25;3.63;;;;;;;;;;6281744;22;20019;-84
2023/05/26 04:36:25;;;;;;;13.10;3.15;;;;;;;;;;6282108;22;20026;-84
2023/05/26 04:38:54;;;;;;;20.83;4.47;;;;;;;;;;6307948;22;20120;-84
2023/05/26 04:41:20;;;;;;;20.65;3.88;;;;;;;;;;6281867;22;20015;-84
2023/05/26 04:43:46;;;;;;;12.60;3.22;;;;;;;;;;6282016;22;20016;-84
2023/05/26 04:46:13;;;;;;;14.02;3.40;;;;;;;;;;6308567;22;20084;-85
2023/05/26 04:48:39;;;;;;;19.42;4.03;;;;;;;;;;6282719;22;20026;-84
2023/05/26 04:51:07;;;;;;;15.65;3.42;;;;;;;;;;6307320;22;20064;-84
2023/05/26 04:53:33;;;;;;;18.30;3.95;;;;;;;;;;6281443;22;20038;-84
2023/05/26 04:55:59;;;;;;;12.40;3.53;;;;;;;;;;6281536;22;20333;-84
2023/05/26 04:58:26;;;;;;;16.08;3.55;;;;;;;;;;6281816;22;20030;-84
2023/05/26 05:00:53;;;;;;;17.30;4.15;;;;;;;;;;6308437;22;20098;-85
2023/05/26 05:03:20;;;;;;;19.00;4.75;;;;;;;;;;6282944;22;20077;-84
2023/05/26 05:05:47;;;;;;;15.48;3.72;;;;;;;;;;6306826;22;20019;-85
2023/05/26 05:08:13;;;;;;;18.83;3.88;;;;;;;;;;6282045;22;20012;-85
2023/05/26 05:10:39;;;;;;;19.33;4.28;;;;;;;;;;6281916;22;20448;-85
2023/05/26 05:13:05;;;;;;;17.80;3.83;;;;;;;;;;6307080;22;20011;-84
2023/05/26 05:15:31;;;;;;;16.73;4.03;;;;;;;;;;6307591;22;20464;-85
2023/05/26 05:18:02;;;;;;;18.98;4.60;;;;;;;;;;6281679;22;20019;-84
2023/05/26 05:20:28;;;;;;;19.98;3.85;;;;;;;;;;6308249;22;20015;-84
2023/05/26 05:22:54;;;;;;;22.88;4.97;;;;;;;;;;6308200;22;20022;-85
2023/05/26 05:25:21;;;;;;;18.92;3.88;;;;;;;;;;6281314;22;20058;-84
2023/05/26 05:27:47;;;;;;;18.60;4.30;;;;;;;;;;6281305;22;20015;-85
2023/05/26 05:30:14;;;;;;;25.13;5.05;;;;;;;;;;6307083;22;20016;-85
2023/05/26 05:32:40;;;;;;;22.40;4.80;;;;;;;;;;6281554;22;20038;-85
2023/05/26 05:35:06;;;;;;;22.75;4.85;;;;;;;;;;6281088;22;20015;-85
2023/05/26 05:37:32;;;;;;;25.92;4.25;;;;;;;;;;6282027;22;20462;-85
2023/05/26 05:39:58;;;;;;;20.23;3.95;;;;;;;;;;6281520;22;20445;-85
2023/05/26 05:42:24;;;;;;;18.75;4.10;;;;;;;;;;6281238;22;20083;-85
2023/05/26 05:44:51;;;;;;;22.90;4.45;;;;;;;;;;6281659;22;20034;-85
2023/05/26 05:47:17;;;;;;;21.67;4.68;;;;;;;;;;6281181;22;20011;-85
2023/05/26 05:49:44;;;;;;;21.65;4.28;;;;;;;;;;6281164;22;20019;-85
2023/05/26 05:52:10;;;;;;;24.83;4.03;;;;;;;;;;6281430;22;20098;-85
2023/05/26 05:54:36;;;;;;;20.80;4.00;;;;;;;;;;6306909;22;20378;-85
2023/05/26 05:57:02;;;;;;;22.75;4.30;;;;;;;;;;6306735;22;20011;-85
2023/05/26 05:59:28;;;;;;;24.00;4.68;;;;;;;;;;6307901;22;20287;-85
2023/05/26 06:01:54;;;;;;;19.77;4.85;;;;;;;;;;6282244;22;20313;-85
2023/05/26 06:04:20;;;;;;;20.42;4.38;;;;;;;;;;6280836;22;20061;-85
2023/05/26 06:06:47;;;;;;;20.58;5.20;;;;;;;;;;6281082;22;20023;-85
2023/05/26 06:09:13;;;;;;;21.38;4.43;;;;;;;;;;6280957;22;20511;-85
2023/05/26 06:11:39;;;;;;;21.67;4.55;;;;;;;;;;6281401;22;20310;-85
2023/05/26 06:14:05;;;;;;;26.77;4.95;;;;;;;;;;6281279;22;20094;-85
2023/05/26 06:16:31;;;;;;;24.20;5.30;;;;;;;;;;6306633;22;20452;-84
2023/05/26 06:18:57;;;;;;;23.40;5.05;;;;;;;;;;6306755;22;20022;-84
2023/05/26 06:21:23;;;;;;;23.92;4.55;;;;;;;;;;6280929;22;20050;-85
2023/05/26 06:23:50;;;;;;;22.00;4.20;;;;;;;;;;6281163;22;20045;-85
2023/05/26 06:26:16;;;;;;;19.42;3.50;;;;;;;;;;6281825;22;20107;-83
2023/05/26 06:28:42;;;;;;;22.20;4.15;;;;;;;;;;6280758;22;20019;-84
2023/05/26 06:31:09;;;;;;;25.75;4.70;;;;;;;;;;6306576;22;20460;-84
2023/05/26 06:33:35;;;;;;;24.13;4.40;;;;;;;;;;6280866;22;20019;-84
2023/05/26 06:36:01;;;;;;;25.60;4.15;;;;;;;;;;6307296;22;20022;-85
2023/05/26 06:38:27;;;;;;;24.40;5.00;;;;;;;;;;6280684;22;20086;-84
2023/05/26 06:40:53;;;;;;;22.15;3.25;;;;;;;;;;6280805;22;20038;-84
2023/05/26 06:43:20;;;;;;;24.05;4.40;;;;;;;;;;6306423;22;20019;-84
2023/05/26 06:45:46;;;;;;;21.02;4.07;;;;;;;;;;6281671;22;20023;-86
2023/05/26 06:48:12;;;;;;;20.38;3.67;;;;;;;;;;6280775;22;20011;-84
2023/05/26 06:50:38;;;;;;;19.33;4.10;;;;;;;;;;6306029;22;20015;-85
2023/05/26 06:53:04;;;;;;;17.20;3.53;;;;;;;;;;6280940;22;20383;-84
2023/05/26 06:55:30;;;;;;;14.48;2.97;;;;;;;;;;6280556;22;20026;-85
2023/05/26 06:57:56;;;;;;;20.80;3.92;;;;;;;;;;6280243;22;20015;-85
2023/05/26 07:00:22;;;;;;;19.60;4.05;;;;;;;;;;6280579;22;20051;-85
2023/05/26 07:02:49;;;;;;;17.13;3.38;;;;;;;;;;6280563;22;20030;-85
2023/05/26 07:05:15;;;;;;;18.85;3.58;;;;;;;;;;6280892;22;20023;-85
2023/05/26 07:07:41;;;;;;;20.10;3.08;;;;;;;;;;6281504;22;20444;-85
2023/05/26 07:10:07;;;;;;;18.45;3.78;;;;;;;;;;6280607;22;20449;-85
2023/05/26 07:12:33;;;;;;;17.35;3.63;;;;;;;;;;6280174;22;20023;-85
2023/05/26 07:14:59;;;;;;;18.70;3.15;;;;;;;;;;6281674;22;20015;-86
2023/05/26 07:17:25;;;;;;;15.95;3.58;;;;;;;;;;6308161;22;20352;-86
2023/05/26 07:19:52;;;;;;;19.63;3.17;;;;;;;;;;6307950;22;20015;-86
2023/05/26 07:22:18;;;;;;;17.70;3.60;;;;;;;;;;6308238;22;20441;-85
2023/05/26 07:24:44;;;;;;;17.25;4.13;;;;;;;;;;6282811;22;20101;-85
2023/05/26 07:27:10;;;;;;;17.08;3.55;;;;;;;;;;6282452;22;20011;-85
2023/05/26 07:29:38;;;;;;;17.40;3.55;;;;;;;;;;6282521;22;20027;-85
2023/05/26 07:32:04;;;;;;;15.63;3.05;;;;;;;;;;6282363;22;20022;-86
2023/05/26 07:34:30;;;;;;;15.60;3.95;;;;;;;;;;6281819;22;20045;-85
2023/05/26 07:36:56;;;;;;;19.85;3.92;;;;;;;;;;6282638;22;20045;-85
2023/05/26 07:39:22;;;;;;;14.60;3.72;;;;;;;;;;6282725;22;20022;-85
2023/05/26 07:41:49;;;;;;;21.35;4.10;;;;;;;;;;6309218;22;20043;-84
2023/05/26 07:44:15;;;;;;;16.50;3.83;;;;;;;;;;6308364;22;20022;-85
2023/05/26 07:46:41;;;;;;;18.75;3.42;;;;;;;;;;6282234;22;20015;-87
2023/05/26 07:49:07;;;;;;;18.88;3.20;;;;;;;;;;6282380;22;20007;-85
2023/05/26 07:51:33;;;;;;;17.35;4.43;;;;;;;;;;6307968;22;20023;-86
2023/05/26 07:53:59;;;;;;;13.23;3.38;;;;;;;;;;6307993;22;20046;-85
2023/05/26 07:56:25;;;;;;;13.30;3.25;;;;;;;;;;6307834;22;20429;-85
2023/05/26 07:58:51;;;;;;;17.00;3.88;;;;;;;;;;6307892;22;20098;-85
2023/05/26 08:01:18;;;;;;;18.67;3.90;;;;;;;;;;6282098;22;20029;-86
2023/05/26 08:03:44;;;;;;;15.88;3.67;;;;;;;;;;6281786;22;20019;-85
2023/05/26 08:06:10;;;;;;;17.58;3.60;;;;;;;;;;6281951;22;20048;-85
2023/05/26 08:08:36;;;;;;;13.90;3.20;;;;;;;;;;6281967;22;20019;-85
2023/05/26 08:11:02;;;;;;;16.38;3.22;;;;;;;;;;6282401;22;20015;-85
2023/05/26 08:13:28;;;;;;;15.20;3.17;;;;;;;;;;6307600;22;20015;-84
2023/05/26 08:15:54;;;;;;;15.57;3.88;;;;;;;;;;6281853;22;20081;-85
2023/05/26 08:18:20;;;;;;;16.05;3.38;;;;;;;;;;6308026;22;20018;-85
2023/05/26 08:20:52;;;;;;;15.70;3.58;;;;;;;;;;6281943;22;20075;-86
2023/05/26 08:23:19;;;;;;;14.68;3.22;;;;;;;;;;6282911;22;20050;-85
2023/05/26 08:25:45;;;;;;;15.65;3.42;;;;;;;;;;6281966;22;20520;-85
2023/05/26 08:28:11;;;;;;;14.43;3.95;;;;;;;;;;6281866;22;20011;-85
2023/05/26 08:30:37;;;;;;;13.77;3.20;;;;;;;;;;6281895;22;20445;-85
2023/05/26 08:33:03;;;;;;;15.48;3.13;;;;;;;;;;6307932;22;20011;-85
2023/05/26 08:35:29;;;;;;;17.85;4.05;;;;;;;;;;6307477;22;20041;-85
2023/05/26 08:37:55;;;;;;;17.20;3.75;;;;;;;;;;6307412;22;20464;-85
2023/05/26 08:40:21;;;;;;;13.68;2.53;;;;;;;;;;6308494;22;20434;-85
2023/05/26 08:42:50;;;;;;;12.52;2.50;;;;;;;;;;6281627;22;20061;-85
2023/05/26 08:45:16;;;;;;;14.35;3.28;;;;;;;;;;6307428;22;20019;-86
2023/05/26 08:47:42;;;;;;;10.18;2.67;;;;;;;;;;6281696;22;20022;-85
2023/05/26 08:50:09;;;;;;;16.95;3.00;;;;;;;;;;6281633;22;20402;-85
2023/05/26 08:52:36;;;;;;;13.85;3.15;;;;;;;;;;6281644;22;20166;-85
2023/05/26 08:55:03;;;;;;;9.15;2.45;;;;;;;;;;6281637;22;20015;-84
2023/05/26 08:57:30;;;;;;;13.38;2.72;;;;;;;;;;6281161;22;20011;-84
2023/05/26 08:59:56;;;;;;;14.35;3.10;;;;;;;;;;6281494;22;20510;-84
2023/05/26 09:02:22;;;;;;;15.90;2.75;;;;;;;;;;6282285;22;20102;-84
2023/05/26 09:04:48;;;;;;;12.18;2.17;;;;;;;;;;6281472;22;20015;-85
2023/05/26 09:07:14;;;;;;;14.80;2.63;;;;;;;;;;6307239;22;20019;-85
2023/05/26 09:09:41;;;;;;;11.75;2.15;;;;;;;;;;6281763;22;20069;-85
2023/05/26 09:12:11;;;;;;;13.40;2.40;;;;;;;;;;6282307;22;20418;-85
2023/05/26 09:14:38;;;;;;;9.68;2.17;;;;;;;;;;6307037;22;20015;-85
2023/05/26 09:17:04;;;;;;;10.20;2.25;;;;;;;;;;6282280;22;20023;-85
2023/05/26 09:19:32;;;;;;;10.60;2.05;;;;;;;;;;6307149;22;20019;-85
2023/05/26 09:22:04;;;;;;;9.88;2.38;;;;;;;;;;6281443;22;20152;-85
2023/05/26 09:24:31;;;;;;;13.32;2.15;;;;;;;;;;6282295;22;20275;-85
2023/05/26 09:26:57;;;;;;;12.18;3.00;;;;;;;;;;6281744;22;20072;-85
2023/05/26 09:29:23;;;;;;;30.17;1.95;;;;;;;;;;6281287;22;20392;-86
2023/05/26 09:31:50;;;;;;;12.30;2.75;;;;;;;;;;6281311;22;20020;-85
2023/05/26 09:34:21;;;;;;;12.80;2.33;;;;;;;;;;6306904;22;20015;-85
2023/05/26 09:36:47;;;;;;;10.90;2.22;;;;;;;;;;6307947;22;20090;-86
2023/05/26 09:39:14;;;;;;;13.55;2.75;;;;;;;;;;6280675;22;20026;-87
2023/05/26 09:41:40;;;;;;;13.02;2.67;;;;;;;;;;6280777;22;20019;-85
2023/05/26 09:44:10;;;;;;;14.13;2.33;;;;;;;;;;6281111;22;20406;-85
2023/05/26 09:46:36;;;;;;;9.40;2.08;;;;;;;;;;6281215;22;20015;-85
2023/05/26 09:49:12;;;;;;;11.82;2.20;;;;;;;;;;6281073;22;20026;-85
2023/05/26 09:51:38;;;;;;;13.13;2.20;;;;;;;;;;6280778;22;20098;-85
2023/05/26 09:54:05;;;;;;;9.13;2.05;;;;;;;;;;6281059;22;20329;-84
2023/05/26 09:56:34;;;;;;;9.20;2.00;;;;;;;;;;6307743;22;20094;-85
2023/05/26 09:59:05;;;;;;;12.98;2.25;;;;;;;;;;6306765;22;20071;-85
2023/05/26 10:01:31;;;;;;;10.00;2.05;;;;;;;;;;6306789;22;20023;-84
2023/05/26 10:03:58;;;;;;;6.97;2.13;;;;;;;;;;6280947;22;20070;-85
2023/05/26 10:06:24;;;;;;;9.27;1.90;;;;;;;;;;6280751;22;20015;-85
2023/05/26 10:08:55;;;;;;;12.70;2.85;;;;;;;;;;6280867;22;20506;-84
2023/05/26 10:11:21;;;;;;;7.07;1.70;;;;;;;;;;6282054;22;20019;-84
2023/05/26 10:13:47;;;;;;;8.85;1.73;;;;;;;;;;6306311;22;20023;-84
2023/05/26 10:16:13;;;;;;;10.00;2.20;;;;;;;;;;6281180;22;20380;-84
2023/05/26 10:18:40;;;;;;;11.13;1.95;;;;;;;;;;6280821;22;20042;-85
2023/05/26 10:21:08;;;;;;;11.13;2.28;;;;;;;;;;6307650;22;20015;-85
2023/05/26 10:23:42;;;;;;;10.57;2.33;;;;;;;;;;6280804;22;20345;-84
2023/05/26 10:26:13;;;;;;;9.30;2.13;;;;;;;;;;6306930;22;20019;-85
2023/05/26 10:28:51;;;;;;;9.65;2.00;;;;;;;;;;6307577;22;20015;-85
2023/05/26 10:31:30;;;;;;;11.73;2.40;;;;;;;;;;6280760;22;20050;-84
2023/05/26 10:33:57;;;;;;;8.43;1.80;;;;;;;;;;6306523;22;20099;-85
2023/05/26 10:36:23;;;;;;;6.18;1.88;;;;;;;;;;6280537;22;20429;-84
2023/05/26 10:38:52;;;;;;;7.40;1.50;;;;;;;;;;6281098;22;20307;-84
2023/05/26 10:41:31;;;;;;;7.97;1.80;;;;;;;;;;6280777;22;20020;-84
2023/05/26 10:43:58;;;;;;;9.68;1.85;;;;;;;;;;6280682;22;20019;-84
2023/05/26 10:46:36;;;;;;;7.35;1.85;;;;;;;;;;6306579;22;20021;-84
2023/05/26 10:49:02;;;;;;;7.55;1.27;;;;;;;;;;6281106;22;20019;-83
2023/05/26 10:51:32;;;;;;;6.75;1.50;;;;;;;;;;6308368;22;20472;-83
2023/05/26 10:53:59;;;;;;;7.38;2.00;;;;;;;;;;6308629;22;20023;-84
2023/05/26 10:56:45;;;;;;;8.30;2.00;;;;;;;;;;6282974;22;20015;-83
2023/05/26 10:59:21;;;;;;;10.18;1.67;;;;;;;;;;6308647;22;20026;-85
2023/05/26 11:01:52;;;;;;;8.25;1.65;;;;;;;;;;6309773;22;20020;-84
2023/05/26 11:04:18;;;;;;;6.95;1.73;;;;;;;;;;6282733;22;20476;-84
2023/05/26 11:06:51;;;;;;;4.13;1.10;;;;;;;;;;6282324;22;20015;-84
2023/05/26 11:09:22;;;;;;;7.15;1.35;;;;;;;;;;6282659;22;20019;-84
2023/05/26 11:11:53;;;;;;;5.93;1.73;;;;;;;;;;6283660;22;20294;-84
2023/05/26 11:14:24;;;;;;;5.88;1.17;;;;;;;;;;6307912;22;20047;-84
2023/05/26 11:16:50;;;;;;;8.00;1.70;;;;;;;;;;6283612;22;20064;-84
2023/05/26 11:19:26;;;;;;;7.20;1.60;;;;;;;;;;6282591;22;20015;-83
2023/05/26 11:21:52;;;;;;;9.15;1.80;;;;;;;;;;6282674;22;20460;-84
2023/05/26 11:24:18;;;;;;;7.55;1.63;;;;;;;;;;6308361;22;20380;-84
2023/05/26 11:26:45;;;;;;;8.65;1.45;;;;;;;;;;6308366;22;20015;-84
2023/05/26 11:29:11;;;;;;;9.02;2.00;;;;;;;;;;6282697;22;20019;-83
2023/05/26 11:31:38;;;;;;;8.70;2.00;;;;;;;;;;6282516;22;20461;-83
2023/05/26 11:34:05;;;;;;;8.60;1.60;;;;;;;;;;6308236;22;20058;-83
2023/05/26 11:36:31;;;;;;;9.45;2.58;;;;;;;;;;6308355;22;20015;-84
2023/05/26 11:39:01;;;;;;;8.05;1.70;;;;;;;;;;6282583;22;20337;-85
2023/05/26 11:41:28;;;;;;;6.75;1.58;;;;;;;;;;6309088;22;20019;-84
2023/05/26 11:43:54;;;;;;;9.77;1.67;;;;;;;;;;6308118;22;20046;-84
2023/05/26 11:46:21;;;;;;;6.15;1.42;;;;;;;;;;6309163;22;20430;-84
2023/05/26 11:48:48;;;;;;;8.88;1.90;;;;;;;;;;6282265;22;20019;-85
2023/05/26 11:51:21;;;;;;;6.30;1.55;;;;;;;;;;6282271;22;20345;-84
2023/05/26 11:53:54;;;;;;;7.55;1.85;;;;;;;;;;6283218;22;20015;-85
2023/05/26 11:56:21;;;;;;;6.22;1.58;;;;;;;;;;6308023;22;20341;-85
2023/05/26 11:58:50;;;;;;;7.35;2.20;;;;;;;;;;6282215;22;20023;-84
2023/05/26 12:01:16;;;;;;;6.43;2.08;;;;;;;;;;6307955;22;20327;-85
2023/05/26 12:03:44;;;;;;;10.90;1.90;;;;;;;;;;6308045;22;20011;-85
2023/05/26 12:06:14;;;;;;;6.40;1.58;;;;;;;;;;6308794;22;20021;-84
2023/05/26 12:08:44;;;;;;;7.10;2.08;;;;;;;;;;6307928;22;20019;-84
2023/05/26 12:11:30;;;;;;;9.65;1.98;;;;;;;;;;6307987;22;20023;-84
2023/05/26 12:13:57;;;;;;;10.73;1.95;;;;;;;;;;6307776;22;20015;-85
2023/05/26 12:16:31;;;;;;;7.45;2.00;;;;;;;;;;6281974;22;20140;-84
2023/05/26 12:18:58;;;;;;;9.73;1.83;;;;;;;;;;6282994;22;20330;-85
2023/05/26 12:21:25;;;;;;;11.38;2.17;;;;;;;;;;6281922;22;20015;-84
2023/05/26 12:23:52;;;;;;;7.72;2.00;;;;;;;;;;6307776;22;20019;-84
2023/05/26 12:26:18;;;;;;;5.90;1.27;;;;;;;;;;6281907;22;20494;-84
2023/05/26 12:28:44;;;;;;;8.50;2.50;;;;;;;;;;6282919;22;20026;-85
2023/05/26 12:31:11;;;;;;;7.38;1.40;;;;;;;;;;6281960;22;20345;-84
2023/05/26 12:33:37;;;;;;;8.27;2.00;;;;;;;;;;6281826;22;20019;-84
2023/05/26 12:36:05;;;;;;;8.10;1.75;;;;;;;;;;6282644;22;20015;-84
2023/05/26 12:38:43;;;;;;;6.47;1.63;;;;;;;;;;6281986;22;20015;-85
2023/05/26 12:41:09;;;;;;;7.75;1.88;;;;;;;;;;6307778;22;20384;-85
2023/05/26 12:43:36;;;;;;;8.10;2.05;;;;;;;;;;6281880;22;20023;-85
2023/05/26 12:46:02;;;;;;;3.85;1.40;;;;;;;;;;6307605;22;20064;-84
2023/05/26 12:48:29;;;;;;;5.55;1.60;;;;;;;;;;6282126;22;20070;-84
2023/05/26 12:50:55;;;;;;;8.60;2.22;;;;;;;;;;6307625;22;20338;-85
2023/05/26 12:53:22;;;;;;;5.55;2.13;;;;;;;;;;6282171;22;20027;-84
2023/05/26 12:55:48;;;;;;;9.63;2.05;;;;;;;;;;6281549;22;20506;-85
2023/05/26 12:58:14;;;;;;;7.30;2.00;;;;;;;;;;6281592;22;20042;-85
2023/05/26 13:00:40;;;;;;;10.55;2.22;;;;;;;;;;6281736;22;20094;-85
2023/05/26 13:03:06;;;;;;;9.18;2.17;;;;;;;;;;6281653;22;20395;-85
2023/05/26 13:05:32;;;;;;;7.85;1.90;;;;;;;;;;6281361;22;20510;-85
2023/05/26 13:07:58;;;;;;;9.15;2.47;;;;;;;;;;6281812;22;20017;-85
2023/05/26 13:10:24;;;;;;;8.13;1.88;;;;;;;;;;6308290;22;20015;-85
2023/05/26 13:12:51;;;;;;;11.10;2.88;;;;;;;;;;6306343;22;20015;-85
2023/05/26 13:15:18;;;;;;;7.93;2.70;;;;;;;;;;6281962;22;20019;-85
2023/05/26 13:17:44;;;;;;;8.70;3.08;;;;;;;;;;6281692;22;20016;-85
2023/05/26 13:20:10;;;;;;;8.55;1.98;;;;;;;;;;6282384;22;20083;-85
2023/05/26 13:22:38;;;;;;;10.57;2.40;;;;;;;;;;6281553;22;20011;-85
2023/05/26 13:25:04;;;;;;;11.68;3.03;;;;;;;;;;6307186;22;20023;-85
2023/05/26 13:27:30;;;;;;;9.93;3.22;;;;;;;;;;6281315;22;20011;-85
2023/05/26 13:29:56;;;;;;;9.70;2.35;;;;;;;;;;6281601;22;20023;-85
2023/05/26 13:32:23;;;;;;;11.95;3.42;;;;;;;;;;6281886;22;20076;-85
2023/05/26 13:34:49;;;;;;;9.68;2.28;;;;;;;;;;6307034;22;20372;-86
2023/05/26 13:37:15;;;;;;;13.48;2.47;;;;;;;;;;6281408;22;20505;-86
2023/05/26 13:39:41;;;;;;;10.80;2.97;;;;;;;;;;6282398;22;20015;-86
2023/05/26 13:42:07;;;;;;;8.93;2.67;;;;;;;;;;6282283;22;20019;-86
2023/05/26 13:44:33;;;;;;;10.20;3.42;;;;;;;;;;6281289;22;20092;-86
2023/05/26 13:46:59;;;;;;;10.75;2.70;;;;;;;;;;6281181;22;20094;-86
2023/05/26 13:49:25;;;;;;;12.55;3.17;;;;;;;;;;6281191;22;20088;-85
2023/05/26 13:51:51;;;;;;;11.15;3.42;;;;;;;;;;6281543;22;20015;-85
2023/05/26 13:54:17;;;;;;;7.57;2.95;;;;;;;;;;6306822;22;20015;-85
2023/05/26 13:56:43;;;;;;;8.88;2.25;;;;;;;;;;6307791;22;20287;-84
2023/05/26 13:59:10;;;;;;;12.38;3.65;;;;;;;;;;6307846;22;20334;-84
2023/05/26 14:01:36;;;;;;;7.30;2.60;;;;;;;;;;6280992;22;20026;-84
2023/05/26 14:04:02;;;;;;;10.80;2.88;;;;;;;;;;6281138;22;20028;-85
2023/05/26 14:06:34;;;;;;;8.93;2.50;;;;;;;;;;6306635;22;20016;-84
2023/05/26 14:09:00;;;;;;;9.65;2.78;;;;;;;;;;6307836;22;20022;-85
2023/05/26 14:11:26;;;;;;;6.10;2.55;;;;;;;;;;6281489;22;20011;-85
2023/05/26 14:13:53;;;;;;;8.30;3.10;;;;;;;;;;6280501;22;20457;-85
2023/05/26 14:16:19;;;;;;;9.82;3.00;;;;;;;;;;6307773;22;20019;-85
2023/05/26 14:18:45;;;;;;;9.30;2.17;;;;;;;;;;6282108;22;20090;-85
2023/05/26 14:21:11;;;;;;;8.88;2.47;;;;;;;;;;6280984;22;20019;-85
2023/05/26 14:23:37;;;;;;;8.00;2.35;;;;;;;;;;6280872;22;20337;-85
2023/05/26 14:26:03;;;;;;;12.07;2.47;;;;;;;;;;6280732;22;20015;-85
2023/05/26 14:28:29;;;;;;;7.75;2.03;;;;;;;;;;6281812;22;20026;-85
2023/05/26 14:30:55;;;;;;;7.57;1.75;;;;;;;;;;6281267;22;20373;-85
2023/05/26 14:33:21;;;;;;;8.93;2.10;;;;;;;;;;6306968;22;20393;-85